Latest Weather Observations for Brisbane

IDQ60901

Issued at 8:31 pm EST Monday 22 April 2019 (issued every 10 minutes, with the page automatically refreshed every 10 minutes)

About weather observations | Map of Brisbane area stations | Latest observations for Brisbane area | Other Formats
Station Details ID: 040913 Name: BRISBANE Lat: -27.48 Lon: 153.04 Height: 8.13 m
Data from the previous 72 hours. | See also: Recent months at Brisbane
Date/Time
EST
Temp
°C
App
Temp
°C
Dew
Point
°C
Rel
Hum
%
Delta-T
°C
Wind Press
QNH
hPa
Press
MSL
hPa
Rain since
9am
mm
Dir  Spd
km/h
Gust
km/h
Spd
kts
Gust
kts
22/08:30pm 21.0 23.3 18.6 86 1.5 SSE 4 9 2 5 1022.4 1022.4 0.4
22/08:00pm 20.9 23.5 18.5 86 1.5 SSW 2 6 1 3 1022.2 1022.2 0.4
22/07:30pm 20.8 23.5 18.6 87 1.4 SSE 2 7 1 4 1022.0 1022.0 0.4
22/07:00pm 20.7 23.0 18.6 88 1.3 SSE 4 11 2 6 1021.7 1021.7 0.4
22/06:30pm 20.7 22.6 18.6 88 1.3 ESE 6 11 3 6 1021.3 1021.3 0.2
22/06:00pm 20.7 21.9 18.3 86 1.5 ESE 9 22 5 12 1021.2 1021.2 0.2
22/05:30pm 21.6 22.9 17.6 78 2.5 ESE 7 15 4 8 1020.9 1020.9 0.2
22/05:00pm 21.8 22.8 17.8 78 2.5 ESE 9 13 5 7 1020.6 1020.6 0.2
22/04:30pm 21.7 22.1 18.9 84 1.8 E 15 26 8 14 1020.4 1020.4 0.2
22/04:00pm 23.6 25.3 18.5 73 3.2 ESE 7 20 4 11 1020.0 1020.0 0.2
22/03:30pm 23.9 24.8 18.3 71 3.5 SE 11 19 6 10 1019.9 1019.9 0.2
22/03:00pm 24.6 25.2 17.8 66 4.2 ESE 11 20 6 11 1019.8 1019.8 0.2
22/02:30pm 25.1 25.7 17.8 64 4.6 ESE 11 24 6 13 1020.0 1020.0 0.2
22/02:00pm 24.7 24.6 17.9 66 4.3 E 15 24 8 13 1019.9 1019.9 0.2
22/01:30pm 25.1 25.2 18.3 66 4.3 ESE 15 26 8 14 1019.8 1019.8 0.2
22/01:00pm 24.5 25.7 19.1 72 3.4 ESE 11 22 6 12 1020.1 1020.1 0.0
22/12:30pm 23.3 24.0 18.8 76 2.8 E 13 24 7 13 1020.6 1020.6 0.0
22/12:00pm 25.2 27.0 18.2 65 4.4 ESE 6 13 3 7 1020.5 1020.5 0.0
22/11:30am 25.3 26.0 18.0 64 4.6 ESE 11 19 6 10 1020.7 1020.7 0.0
22/11:00am 24.3 24.2 17.8 67 4.1 ESE 15 30 8 16 1021.2 1021.2 0.0
22/10:30am 24.5 25.2 18.0 67 4.1 ESE 11 20 6 11 1021.5 1021.5 0.0
22/10:00am 24.7 25.8 17.9 66 4.3 SE 9 19 5 10 1021.5 1021.5 0.0
22/09:30am 23.7 24.1 17.2 67 4.0 SE 11 20 6 11 1021.6 1021.6 0.0
22/09:00am 23.3 24.0 17.1 68 3.8 SE 9 22 5 12 1021.6 1021.6 1.4
22/08:30am 22.2 24.5 17.8 76 2.7 SSW 2 7 1 4 1021.8 1021.8 1.4
22/08:00am 21.2 23.6 18.0 82 2.0 SW 2 6 1 3 1021.6 1021.6 1.4
22/07:30am 19.6 22.0 17.9 90 1.0 WSW 2 4 1 2 1021.3 1021.3 1.4
22/07:00am 18.4 20.8 17.1 92 0.8 CALM 0 2 0 1 1020.8 1020.8 1.4
22/06:30am 18.0 20.3 16.7 92 0.8 CALM 0 2 0 1 1020.7 1020.7 1.4
22/06:00am 18.1 20.3 16.6 91 0.9 CALM 0 4 0 2 1020.5 1020.5 1.4
22/05:30am 18.3 20.2 16.8 91 0.9 SW 2 6 1 3 1020.3 1020.3 1.4
22/05:00am 18.6 20.7 17.3 92 0.8 SW 2 4 1 2 1020.2 1020.2 1.4
22/04:30am 18.9 20.4 17.7 93 0.7 WSW 6 7 3 4 1020.0 1020.0 1.4
22/04:00am 18.9 21.2 17.7 93 0.7 WSW 2 6 1 3 1019.8 1019.8 1.2
22/03:30am 19.0 21.3 17.7 92 0.8 SW 2 4 1 2 1019.7 1019.7 1.2
22/03:00am 19.0 21.7 17.7 92 0.8 CALM 0 4 0 2 1019.7 1019.7 1.2
22/02:30am 19.1 21.4 17.8 92 0.8 WSW 2 4 1 2 1020.0 1020.0 1.2
22/02:00am 19.4 21.8 17.9 91 0.9 SW 2 4 1 2 1020.4 1020.4 1.0
22/01:30am 19.6 21.9 17.7 89 1.2 SSW 2 6 1 3 1020.8 1020.8 0.8
22/01:00am 20.1 22.5 17.9 87 1.4 S 2 6 1 3 1020.8 1020.8 0.4
22/12:30am 20.1 22.0 17.7 86 1.5 SSE 4 11 2 6 1021.3 1021.3 0.4
22/12:00am 19.9 21.7 17.5 86 1.5 SE 4 9 2 5 1021.5 1021.5 0.4
 
Date/Time
EST
Temp
°C
App
Temp
°C
Dew
Point
°C
Rel
Hum
%
Delta-T
°C
Wind Press
QNH
hPa
Press
MSL
hPa
Rain since
9am
mm
Dir  Spd
km/h
Gust
km/h
Spd
kts
Gust
kts
21/11:30pm 20.2 22.2 17.8 86 1.5 SSE 4 11 2 6 1021.6 1021.6 0.4
21/11:00pm 20.0 22.8 18.0 88 1.2 CALM 0 0 0 0 1021.7 1021.7 0.2
21/10:30pm 20.0 22.9 18.3 90 1.1 CALM 0 0 0 0 1021.9 1021.9 0.2
21/10:00pm 19.8 22.6 17.9 89 1.2 CALM 0 0 0 0 1022.0 1022.0 0.2
21/09:30pm 20.1 23.0 18.2 89 1.2 CALM 0 4 0 2 1022.3 1022.3 0.2
21/09:00pm 20.5 23.4 18.3 87 1.4 CALM 0 2 0 1 1021.9 1021.9 0.2
21/08:30pm 21.0 23.3 18.6 86 1.5 SSW 4 6 2 3 1021.9 1021.9 0.2
21/08:00pm 20.7 23.7 18.5 87 1.4 CALM 0 2 0 1 1021.6 1021.6 0.2
21/07:30pm 20.7 22.9 18.3 86 1.5 S 4 6 2 3 1021.3 1021.3 0.2
21/07:00pm 20.9 23.5 17.5 81 2.1 CALM 0 4 0 2 1021.4 1021.4 0.0
21/06:30pm 20.5 22.3 17.3 82 2.0 E 4 9 2 5 1020.9 1020.9 0.0
21/06:00pm 20.8 21.9 17.0 79 2.3 SE 7 15 4 8 1020.8 1020.8 0.0
21/05:30pm 20.9 21.2 17.1 79 2.3 ESE 11 22 6 12 1021.0 1021.0 0.0
21/05:00pm 22.0 22.8 18.2 79 2.4 E 11 26 6 14 1020.8 1020.8 0.0
21/04:30pm 23.3 24.2 17.5 70 3.6 SE 9 15 5 8 1020.3 1020.3 0.0
21/04:00pm 24.6 24.1 15.8 58 5.3 ESE 13 22 7 12 1019.9 1019.9 0.0
21/03:30pm 24.9 23.8 15.2 54 5.8 ESE 15 28 8 15 1019.8 1019.8 0.0
21/03:00pm 25.6 24.7 15.9 55 5.9 E 15 26 8 14 1019.8 1019.8 0.0
21/02:30pm 25.3 24.8 15.9 56 5.7 ESE 13 24 7 13 1020.0 1020.0 0.0
21/02:00pm 25.1 24.1 15.7 56 5.7 ESE 15 32 8 17 1019.9 1019.9 0.0
21/01:30pm 25.4 24.9 16.8 59 5.3 E 15 28 8 15 1020.1 1020.1 0.0
21/01:00pm 25.3 24.1 16.2 57 5.6 E 17 30 9 16 1020.1 1020.1 0.0
21/12:30pm 25.8 25.3 16.9 58 5.5 ESE 15 26 8 14 1020.5 1020.5 0.0
21/12:00pm 25.1 25.1 17.1 61 4.9 ESE 13 26 7 14 1020.8 1020.8 0.0
21/11:30am 25.4 25.6 18.6 66 4.3 E 15 30 8 16 1021.2 1021.2 0.0
21/11:00am 23.8 24.6 19.1 75 3.0 ENE 13 22 7 12 1021.6 1021.6 0.0
21/10:30am 24.9 24.7 17.6 64 4.6 E 15 26 8 14 1021.6 1021.6 0.0
21/10:00am 24.6 26.3 18.5 69 3.8 ESE 7 13 4 7 1021.8 1021.8 0.0
21/09:30am 24.7 26.8 19.3 72 3.5 SSE 7 17 4 9 1022.0 1022.0 0.0
21/09:00am 23.6 25.4 18.3 72 3.3 SSE 6 15 3 8 1022.2 1022.2 11.0
21/08:30am 23.0 25.2 18.3 75 2.9 S 4 11 2 6 1022.2 1022.2 11.0
21/08:00am 21.4 23.8 18.8 85 1.6 SSW 4 7 2 4 1022.2 1022.2 11.0
21/07:30am 20.1 21.9 18.4 90 1.1 SW 6 7 3 4 1022.2 1022.2 11.0
21/07:00am 20.0 22.6 18.5 91 0.9 SSW 2 7 1 4 1021.9 1021.9 11.0
21/06:30am 19.2 22.0 18.0 93 0.7 CALM 0 2 0 1 1021.6 1021.6 11.0
21/06:00am 19.3 22.1 18.0 92 0.8 CALM 0 0 0 0 1021.3 1021.3 11.0
21/05:30am 19.6 22.2 18.3 92 0.8 SW 2 9 1 5 1020.9 1020.9 11.0
21/05:00am 20.0 22.6 18.5 91 0.9 SW 2 4 1 2 1020.7 1020.7 11.0
21/04:30am 20.3 23.4 18.6 90 1.1 CALM 0 4 0 2 1020.5 1020.5 11.0
21/04:00am 20.4 23.1 18.7 90 1.1 SSW 2 6 1 3 1020.4 1020.4 11.0
21/03:30am 20.4 23.2 18.9 91 0.9 SSE 2 6 1 3 1020.2 1020.2 11.0
21/03:00am 20.4 22.5 18.9 91 0.9 SE 6 11 3 6 1020.2 1020.2 11.0
21/02:30am 20.4 22.6 19.1 92 0.8 SE 6 13 3 7 1020.5 1020.5 11.0
21/02:00am 20.4 23.0 19.2 93 0.8 S 4 11 2 6 1020.8 1020.8 10.6
21/01:30am 20.0 22.9 19.0 94 0.6 SSW 2 6 1 3 1021.0 1021.0 10.6
21/01:00am 20.0 23.3 19.0 94 0.6 CALM 0 4 0 2 1021.4 1021.4 10.6
21/12:30am 20.1 23.4 19.1 94 0.6 CALM 0 4 0 2 1021.6 1021.6 10.6
21/12:00am 20.4 23.8 19.4 94 0.6 CALM 0 2 0 1 1021.6 1021.6 10.6
 
Date/Time
EST
Temp
°C
App
Temp
°C
Dew
Point
°C
Rel
Hum
%
Delta-T
°C
Wind Press
QNH
hPa
Press
MSL
hPa
Rain since
9am
mm
Dir  Spd
km/h
Gust
km/h
Spd
kts
Gust
kts
20/11:30pm 20.4 23.4 19.2 93 0.8 SSW 2 6 1 3 1021.6 1021.6 10.6
20/11:00pm 20.5 23.6 19.5 94 0.6 SW 2 6 1 3 1021.7 1021.7 10.4
20/10:30pm 20.4 23.7 19.2 93 0.8 CALM 0 4 0 2 1021.8 1021.8 10.4
20/10:00pm 20.6 23.6 19.3 92 0.8 SW 2 4 1 2 1021.9 1021.9 10.4
20/09:30pm 20.8 23.9 19.5 92 0.8 S 2 9 1 5 1022.0 1022.0 10.4
20/09:00pm 20.7 23.8 19.4 92 0.8 SW 2 7 1 4 1022.1 1022.1 10.4
20/08:30pm 20.6 23.5 19.1 91 0.9 S 2 6 1 3 1022.3 1022.3 10.4
20/08:00pm 20.6 23.4 18.9 90 1.1 SSE 2 6 1 3 1022.1 1022.1 9.8
20/07:30pm 20.6 23.0 18.9 90 1.1 SSE 4 7 2 4 1022.0 1022.0 9.8
20/07:00pm 20.6 22.6 18.7 89 1.2 ESE 6 13 3 7 1021.6 1021.6 9.6
20/06:30pm 21.0 23.1 19.3 90 1.1 SE 7 13 4 7 1021.2 1021.2 9.6
20/06:00pm 21.3 23.2 19.8 91 1.0 SE 9 22 5 12 1020.7 1020.7 9.6
20/05:30pm 21.4 23.7 19.9 91 1.0 SE 7 13 4 7 1020.8 1020.8 9.6
20/05:00pm 21.6 23.5 19.7 89 1.2 E 9 28 5 15 1020.7 1020.7 9.4
20/04:30pm 22.3 24.6 19.8 86 1.6 ESE 7 22 4 12 1020.3 1020.3 8.4
20/04:00pm 22.9 25.8 20.6 87 1.5 SE 6 11 3 6 1020.0 1020.0 6.6
20/03:30pm 23.0 25.2 20.3 85 1.7 ESE 9 19 5 10 1020.1 1020.1 6.6
20/03:00pm 24.0 25.3 20.1 79 2.5 E 13 24 7 13 1019.9 1019.9 6.6
20/02:30pm 25.5 27.4 20.5 74 3.3 E 11 22 6 12 1019.7 1019.7 6.6
20/02:00pm 23.3 27.4 21.6 90 1.1 E 2 6 1 3 1019.9 1019.9 6.6
20/01:30pm 22.1 26.0 20.4 90 1.1 CALM 0 4 0 2 1020.2 1020.2 6.6
20/01:00pm 21.4 23.2 19.5 89 1.2 ENE 9 17 5 9 1020.8 1020.8 6.4
20/12:30pm 22.1 24.4 19.8 87 1.5 ESE 7 13 4 7 1021.0 1021.0 4.0
20/12:00pm 20.9 20.5 19.0 89 1.2 E 19 30 10 16 1021.7 1021.7 3.8
20/11:30am 24.2 26.9 20.7 81 2.3 ENE 7 19 4 10 1021.8 1021.8 1.6
20/11:00am 23.9 26.6 21.4 86 1.6 ESE 9 17 5 9 1022.0 1022.0 1.4
20/10:30am 22.0 22.7 19.7 87 1.5 ENE 15 33 8 18 1022.6 1022.6 1.2
20/10:00am 24.4 25.9 19.0 72 3.4 ESE 9 20 5 11 1022.5 1022.5 0.0
20/09:30am 24.2 25.8 19.9 77 2.8 ESE 11 28 6 15 1022.5 1022.5 0.0
20/09:00am 23.6 25.9 19.9 80 2.4 S 7 15 4 8 1022.7 1022.7 11.0
20/08:30am 23.0 25.3 19.4 80 2.3 SSE 6 9 3 5 1022.6 1022.6 11.0
20/08:00am 21.6 24.5 19.9 90 1.1 WSW 4 7 2 4 1022.5 1022.5 11.0
20/07:30am 20.9 24.0 19.6 92 0.8 SSE 2 4 1 2 1022.3 1022.3 11.0
20/07:00am 19.8 23.0 18.8 94 0.6 CALM 0 4 0 2 1022.0 1022.0 11.0
20/06:30am 19.6 22.3 18.6 94 0.6 WSW 2 6 1 3 1021.8 1021.8 11.0
20/06:00am 19.5 22.1 18.5 94 0.6 SW 2 6 1 3 1021.5 1021.5 10.8
20/05:30am 19.5 22.1 18.5 94 0.6 WSW 2 6 1 3 1021.2 1021.2 10.8
20/05:00am 19.7 22.4 18.7 94 0.6 SSW 2 7 1 4 1021.0 1021.0 10.8
20/04:30am 19.6 22.3 18.6 94 0.6 WSW 2 6 1 3 1020.9 1020.9 10.8
20/04:00am 19.8 22.6 18.8 94 0.6 WSW 2 7 1 4 1020.9 1020.9 10.8
20/03:30am 19.7 22.1 18.7 94 0.6 SW 4 9 2 5 1020.9 1020.9 10.8
20/03:00am 19.6 22.3 18.6 94 0.6 SW 2 7 1 4 1020.8 1020.8 10.8
20/02:30am 19.7 22.4 18.7 94 0.6 SW 2 6 1 3 1020.9 1020.9 10.8
20/02:00am 20.0 23.2 18.8 93 0.7 CALM 0 4 0 2 1021.1 1021.1 10.8
20/01:30am 20.3 23.2 19.1 93 0.8 SW 2 6 1 3 1021.5 1021.5 10.8
20/01:00am 20.5 23.8 19.2 92 0.8 CALM 0 4 0 2 1021.7 1021.7 10.8
20/12:30am 20.7 23.8 19.4 92 0.8 ESE 2 7 1 4 1022.0 1022.0 10.8
20/12:00am 20.6 23.6 19.3 92 0.8 SE 2 6 1 3 1022.1 1022.1 10.0
 
Date/Time
EST
Temp
°C
App
Temp
°C
Dew
Point
°C
Rel
Hum
%
Delta-T
°C
Wind Press
QNH
hPa
Press
MSL
hPa
Rain since
9am
mm
Dir  Spd
km/h
Gust
km/h
Spd
kts
Gust
kts
19/11:30pm 20.7 23.5 18.8 89 1.2 SE 2 6 1 3 1022.3 1022.3 9.6
19/11:00pm 21.1 23.8 19.4 90 1.1 ESE 4 11 2 6 1022.7 1022.7 9.6
19/10:30pm 21.4 24.6 19.7 90 1.1 SSW 2 6 1 3 1022.6 1022.6 7.4
19/10:00pm 21.1 24.6 19.6 91 1.0 CALM 0 2 0 1 1022.7 1022.7 7.4
19/09:30pm 20.9 23.9 19.2 90 1.1 S 2 6 1 3 1022.6 1022.6 7.4
19/09:00pm 20.9 24.0 19.4 91 0.9 SSE 2 6 1 3 1022.7 1022.7 7.4

Latest Capital City Observations: Canberra | Sydney | Melbourne | Brisbane | Adelaide | Perth | Hobart | Darwin

Other formats

Comma delimited format used in spreadsheet applications
http://www.bom.gov.au/fwo/IDQ60901/IDQ60901.94576.axf

JavaScript Object Notation format (JSON) in row-major order
http://www.bom.gov.au/fwo/IDQ60901/IDQ60901.94576.json

Data quality

Most of these data are generated automatically and are frequently updated. Quality checks on data are not normally performed. It is possible for incorrect values to appear. Refer to information at About Latest Weather Observations and please check the disclaimer before using these data.